sensor_id;sensor_type;location;lat;lon;timestamp;temperature;humidity
2851;DHT22;1433;49.976;8.342;2023-05-07T00:01:01;15.30;99.90
2851;DHT22;1433;49.976;8.342;2023-05-07T00:03:28;15.30;99.90
2851;DHT22;1433;49.976;8.342;2023-05-07T00:05:55;15.30;99.90
2851;DHT22;1433;49.976;8.342;2023-05-07T00:08:21;15.30;99.90
2851;DHT22;1433;49.976;8.342;2023-05-07T00:10:47;15.30;99.90
2851;DHT22;1433;49.976;8.342;2023-05-07T00:13:14;15.20;99.90
2851;DHT22;1433;49.976;8.342;2023-05-07T00:15:40;15.20;99.90
2851;DHT22;1433;49.976;8.342;2023-05-07T00:18:06;15.20;99.90
2851;DHT22;1433;49.976;8.342;2023-05-07T00:20:32;15.20;99.90
2851;DHT22;1433;49.976;8.342;2023-05-07T00:22:58;15.20;99.90
2851;DHT22;1433;49.976;8.342;2023-05-07T00:25:24;15.20;99.90
2851;DHT22;1433;49.976;8.342;2023-05-07T00:27:51;15.20;99.90
2851;DHT22;1433;49.976;8.342;2023-05-07T00:30:19;15.20;99.90
2851;DHT22;1433;49.976;8.342;2023-05-07T00:32:47;15.20;99.90
2851;DHT22;1433;49.976;8.342;2023-05-07T00:35:14;15.20;99.90
2851;DHT22;1433;49.976;8.342;2023-05-07T00:37:40;15.20;99.90
2851;DHT22;1433;49.976;8.342;2023-05-07T00:40:07;15.20;99.90
2851;DHT22;1433;49.976;8.342;2023-05-07T00:42:34;15.10;99.90
2851;DHT22;1433;49.976;8.342;2023-05-07T00:45:00;15.20;99.90
2851;DHT22;1433;49.976;8.342;2023-05-07T00:47:27;15.10;99.90
2851;DHT22;1433;49.976;8.342;2023-05-07T00:49:53;15.20;99.90
2851;DHT22;1433;49.976;8.342;2023-05-07T00:52:20;15.20;99.90
2851;DHT22;1433;49.976;8.342;2023-05-07T00:54:47;15.20;99.90
2851;DHT22;1433;49.976;8.342;2023-05-07T00:57:13;15.20;99.90
2851;DHT22;1433;49.976;8.342;2023-05-07T00:59:39;15.20;99.90
2851;DHT22;1433;49.976;8.342;2023-05-07T01:02:06;15.30;99.90
2851;DHT22;1433;49.976;8.342;2023-05-07T01:04:33;15.20;99.90
2851;DHT22;1433;49.976;8.342;2023-05-07T01:07:01;15.30;99.90
2851;DHT22;1433;49.976;8.342;2023-05-07T01:09:28;15.30;99.90
2851;DHT22;1433;49.976;8.342;2023-05-07T01:11:56;15.30;99.90
2851;DHT22;1433;49.976;8.342;2023-05-07T01:14:23;15.20;99.90
2851;DHT22;1433;49.976;8.342;2023-05-07T01:16:50;15.20;99.90
2851;DHT22;1433;49.976;8.342;2023-05-07T01:19:18;15.10;99.90
2851;DHT22;1433;49.976;8.342;2023-05-07T01:21:47;15.00;99.90
2851;DHT22;1433;49.976;8.342;2023-05-07T01:24:15;15.00;99.90
2851;DHT22;1433;49.976;8.342;2023-05-07T01:26:44;14.90;99.90
2851;DHT22;1433;49.976;8.342;2023-05-07T01:29:11;14.90;99.90
2851;DHT22;1433;49.976;8.342;2023-05-07T01:31:38;14.90;99.90
2851;DHT22;1433;49.976;8.342;2023-05-07T01:34:07;14.90;99.90
2851;DHT22;1433;49.976;8.342;2023-05-07T01:36:34;15.00;99.90
2851;DHT22;1433;49.976;8.342;2023-05-07T01:39:02;14.90;99.90
2851;DHT22;1433;49.976;8.342;2023-05-07T01:41:28;14.90;99.90
2851;DHT22;1433;49.976;8.342;2023-05-07T01:43:55;14.90;99.90
2851;DHT22;1433;49.976;8.342;2023-05-07T01:46:22;14.90;99.90
2851;DHT22;1433;49.976;8.342;2023-05-07T01:48:50;15.00;99.90
2851;DHT22;1433;49.976;8.342;2023-05-07T01:51:16;15.00;99.90
2851;DHT22;1433;49.976;8.342;2023-05-07T01:53:43;15.00;99.90
2851;DHT22;1433;49.976;8.342;2023-05-07T01:56:12;15.10;99.90
2851;DHT22;1433;49.976;8.342;2023-05-07T01:58:39;15.10;99.90
2851;DHT22;1433;49.976;8.342;2023-05-07T02:01:05;15.10;99.90
2851;DHT22;1433;49.976;8.342;2023-05-07T02:03:31;15.10;99.90
2851;DHT22;1433;49.976;8.342;2023-05-07T02:05:59;15.20;99.90
2851;DHT22;1433;49.976;8.342;2023-05-07T02:08:30;15.20;99.90
2851;DHT22;1433;49.976;8.342;2023-05-07T02:10:57;15.20;99.90
2851;DHT22;1433;49.976;8.342;2023-05-07T02:13:26;15.30;99.90
2851;DHT22;1433;49.976;8.342;2023-05-07T02:15:53;15.30;99.90
2851;DHT22;1433;49.976;8.342;2023-05-07T02:18:20;15.30;99.90
2851;DHT22;1433;49.976;8.342;2023-05-07T02:20:47;15.30;99.90
2851;DHT22;1433;49.976;8.342;2023-05-07T02:23:14;15.20;99.90
2851;DHT22;1433;49.976;8.342;2023-05-07T02:25:40;15.20;99.90
2851;DHT22;1433;49.976;8.342;2023-05-07T02:28:06;15.30;99.90
2851;DHT22;1433;49.976;8.342;2023-05-07T02:30:44;15.30;99.90
2851;DHT22;1433;49.976;8.342;2023-05-07T02:33:10;15.30;99.90
2851;DHT22;1433;49.976;8.342;2023-05-07T02:35:38;15.30;99.90
2851;DHT22;1433;49.976;8.342;2023-05-07T02:38:04;15.30;99.90
2851;DHT22;1433;49.976;8.342;2023-05-07T02:40:31;15.30;99.90
2851;DHT22;1433;49.976;8.342;2023-05-07T02:42:59;15.30;99.90
2851;DHT22;1433;49.976;8.342;2023-05-07T02:45:25;15.20;99.90
2851;DHT22;1433;49.976;8.342;2023-05-07T02:47:53;15.20;99.90
2851;DHT22;1433;49.976;8.342;2023-05-07T02:50:19;15.20;99.90
2851;DHT22;1433;49.976;8.342;2023-05-07T02:52:45;15.30;99.90
2851;DHT22;1433;49.976;8.342;2023-05-07T02:55:12;15.30;99.90
2851;DHT22;1433;49.976;8.342;2023-05-07T02:57:39;15.30;99.90
2851;DHT22;1433;49.976;8.342;2023-05-07T03:00:16;15.30;99.90
2851;DHT22;1433;49.976;8.342;2023-05-07T03:02:45;15.30;99.90
2851;DHT22;1433;49.976;8.342;2023-05-07T03:05:11;15.30;99.90
2851;DHT22;1433;49.976;8.342;2023-05-07T03:07:37;15.40;99.90
2851;DHT22;1433;49.976;8.342;2023-05-07T03:10:04;15.40;99.90
2851;DHT22;1433;49.976;8.342;2023-05-07T03:12:31;15.40;99.90
2851;DHT22;1433;49.976;8.342;2023-05-07T03:14:57;15.40;99.90
2851;DHT22;1433;49.976;8.342;2023-05-07T03:17:24;15.40;99.90
2851;DHT22;1433;49.976;8.342;2023-05-07T03:19:50;15.40;99.90
2851;DHT22;1433;49.976;8.342;2023-05-07T03:22:16;15.40;99.90
2851;DHT22;1433;49.976;8.342;2023-05-07T03:24:42;15.40;99.90
2851;DHT22;1433;49.976;8.342;2023-05-07T03:27:08;15.40;99.90
2851;DHT22;1433;49.976;8.342;2023-05-07T03:29:35;15.30;99.90
2851;DHT22;1433;49.976;8.342;2023-05-07T03:32:01;15.30;99.90
2851;DHT22;1433;49.976;8.342;2023-05-07T03:34:28;15.30;99.90
2851;DHT22;1433;49.976;8.342;2023-05-07T03:36:54;15.30;99.90
2851;DHT22;1433;49.976;8.342;2023-05-07T03:39:21;15.30;99.90
2851;DHT22;1433;49.976;8.342;2023-05-07T03:41:47;15.30;99.90
2851;DHT22;1433;49.976;8.342;2023-05-07T03:44:13;15.30;99.90
2851;DHT22;1433;49.976;8.342;2023-05-07T03:46:40;15.30;99.90
2851;DHT22;1433;49.976;8.342;2023-05-07T03:49:07;15.30;99.90
2851;DHT22;1433;49.976;8.342;2023-05-07T03:51:34;15.20;99.90
2851;DHT22;1433;49.976;8.342;2023-05-07T03:54:03;15.20;99.90
2851;DHT22;1433;49.976;8.342;2023-05-07T03:56:30;15.30;99.90
2851;DHT22;1433;49.976;8.342;2023-05-07T03:58:57;15.30;99.90
2851;DHT22;1433;49.976;8.342;2023-05-07T04:01:23;15.30;99.90
2851;DHT22;1433;49.976;8.342;2023-05-07T04:03:50;15.30;99.90
2851;DHT22;1433;49.976;8.342;2023-05-07T04:06:18;15.30;99.90
2851;DHT22;1433;49.976;8.342;2023-05-07T04:08:45;15.30;99.90
2851;DHT22;1433;49.976;8.342;2023-05-07T04:11:12;15.40;99.90
2851;DHT22;1433;49.976;8.342;2023-05-07T04:13:38;15.40;99.90
2851;DHT22;1433;49.976;8.342;2023-05-07T04:16:06;15.40;99.90
2851;DHT22;1433;49.976;8.342;2023-05-07T04:18:34;15.40;99.90
2851;DHT22;1433;49.976;8.342;2023-05-07T04:21:00;15.50;99.90
2851;DHT22;1433;49.976;8.342;2023-05-07T04:23:27;15.50;99.90
2851;DHT22;1433;49.976;8.342;2023-05-07T04:25:53;15.50;99.90
2851;DHT22;1433;49.976;8.342;2023-05-07T04:28:35;15.50;99.90
2851;DHT22;1433;49.976;8.342;2023-05-07T04:31:02;15.50;99.90
2851;DHT22;1433;49.976;8.342;2023-05-07T04:33:29;15.50;99.90
2851;DHT22;1433;49.976;8.342;2023-05-07T04:35:56;15.50;99.90
2851;DHT22;1433;49.976;8.342;2023-05-07T04:38:23;15.50;99.90
2851;DHT22;1433;49.976;8.342;2023-05-07T04:40:49;15.50;99.90
2851;DHT22;1433;49.976;8.342;2023-05-07T04:43:18;15.50;99.90
2851;DHT22;1433;49.976;8.342;2023-05-07T04:45:46;15.50;99.90
2851;DHT22;1433;49.976;8.342;2023-05-07T04:48:12;15.60;99.90
2851;DHT22;1433;49.976;8.342;2023-05-07T04:50:40;15.60;99.90
2851;DHT22;1433;49.976;8.342;2023-05-07T04:53:07;15.60;99.90
2851;DHT22;1433;49.976;8.342;2023-05-07T04:55:33;15.60;99.90
2851;DHT22;1433;49.976;8.342;2023-05-07T04:57:59;15.70;99.90
2851;DHT22;1433;49.976;8.342;2023-05-07T05:00:28;15.80;99.90
2851;DHT22;1433;49.976;8.342;2023-05-07T05:02:54;15.80;99.90
2851;DHT22;1433;49.976;8.342;2023-05-07T05:05:21;15.80;99.90
2851;DHT22;1433;49.976;8.342;2023-05-07T05:07:49;15.90;99.90
2851;DHT22;1433;49.976;8.342;2023-05-07T05:10:17;16.00;99.90
2851;DHT22;1433;49.976;8.342;2023-05-07T05:12:44;16.10;99.90
2851;DHT22;1433;49.976;8.342;2023-05-07T05:15:12;16.10;99.90
2851;DHT22;1433;49.976;8.342;2023-05-07T05:17:39;16.10;99.90
2851;DHT22;1433;49.976;8.342;2023-05-07T05:20:06;16.20;99.90
2851;DHT22;1433;49.976;8.342;2023-05-07T05:22:33;16.30;99.90
2851;DHT22;1433;49.976;8.342;2023-05-07T05:25:01;16.30;99.90
2851;DHT22;1433;49.976;8.342;2023-05-07T05:27:27;16.40;99.90
2851;DHT22;1433;49.976;8.342;2023-05-07T05:29:53;16.50;99.90
2851;DHT22;1433;49.976;8.342;2023-05-07T05:32:20;16.50;99.90
2851;DHT22;1433;49.976;8.342;2023-05-07T05:34:46;16.60;99.90
2851;DHT22;1433;49.976;8.342;2023-05-07T05:37:12;16.60;99.90
2851;DHT22;1433;49.976;8.342;2023-05-07T05:39:38;16.60;99.90
2851;DHT22;1433;49.976;8.342;2023-05-07T05:42:05;16.60;99.90
2851;DHT22;1433;49.976;8.342;2023-05-07T05:44:33;16.60;99.90
2851;DHT22;1433;49.976;8.342;2023-05-07T05:47:00;16.60;99.90
2851;DHT22;1433;49.976;8.342;2023-05-07T05:49:26;16.50;99.90
2851;DHT22;1433;49.976;8.342;2023-05-07T05:51:53;16.50;99.90
2851;DHT22;1433;49.976;8.342;2023-05-07T05:54:20;16.60;99.90
2851;DHT22;1433;49.976;8.342;2023-05-07T05:56:47;16.60;99.90
2851;DHT22;1433;49.976;8.342;2023-05-07T05:59:15;16.70;99.90
2851;DHT22;1433;49.976;8.342;2023-05-07T06:01:42;16.70;99.90
2851;DHT22;1433;49.976;8.342;2023-05-07T06:04:08;16.70;99.90
2851;DHT22;1433;49.976;8.342;2023-05-07T06:06:34;16.70;99.90
2851;DHT22;1433;49.976;8.342;2023-05-07T06:09:01;16.70;99.90
2851;DHT22;1433;49.976;8.342;2023-05-07T06:11:29;16.70;99.90
2851;DHT22;1433;49.976;8.342;2023-05-07T06:13:59;16.80;43.50
2851;DHT22;1433;49.976;8.342;2023-05-07T06:16:26;16.80;58.10
2851;DHT22;1433;49.976;8.342;2023-05-07T06:18:52;16.90;1.00
2851;DHT22;1433;49.976;8.342;2023-05-07T06:21:20;17.00;1.00
2851;DHT22;1433;49.976;8.342;2023-05-07T06:23:46;17.10;46.90
2851;DHT22;1433;49.976;8.342;2023-05-07T06:26:13;17.20;1.00
2851;DHT22;1433;49.976;8.342;2023-05-07T06:28:41;17.30;1.00
2851;DHT22;1433;49.976;8.342;2023-05-07T06:31:15;17.40;1.00
2851;DHT22;1433;49.976;8.342;2023-05-07T06:33:44;17.60;1.00
2851;DHT22;1433;49.976;8.342;2023-05-07T06:36:12;17.80;1.00
2851;DHT22;1433;49.976;8.342;2023-05-07T06:38:38;17.90;1.00
2851;DHT22;1433;49.976;8.342;2023-05-07T06:41:06;18.00;99.90
2851;DHT22;1433;49.976;8.342;2023-05-07T06:43:32;18.00;99.90
2851;DHT22;1433;49.976;8.342;2023-05-07T06:46:03;18.10;82.90
2851;DHT22;1433;49.976;8.342;2023-05-07T06:48:29;18.10;1.00
2851;DHT22;1433;49.976;8.342;2023-05-07T06:50:57;18.20;40.20
2851;DHT22;1433;49.976;8.342;2023-05-07T06:53:24;18.40;99.90
2851;DHT22;1433;49.976;8.342;2023-05-07T06:55:53;18.40;43.70
2851;DHT22;1433;49.976;8.342;2023-05-07T06:58:20;18.50;2.90
2851;DHT22;1433;49.976;8.342;2023-05-07T07:00:47;18.70;53.50
2851;DHT22;1433;49.976;8.342;2023-05-07T07:03:13;18.70;1.00
2851;DHT22;1433;49.976;8.342;2023-05-07T07:05:41;18.80;1.00
2851;DHT22;1433;49.976;8.342;2023-05-07T07:08:07;18.70;1.00
2851;DHT22;1433;49.976;8.342;2023-05-07T07:10:34;18.80;1.00
2851;DHT22;1433;49.976;8.342;2023-05-07T07:13:01;19.00;1.00
2851;DHT22;1433;49.976;8.342;2023-05-07T07:15:27;19.00;99.90
2851;DHT22;1433;49.976;8.342;2023-05-07T07:17:54;19.10;99.90
2851;DHT22;1433;49.976;8.342;2023-05-07T07:20:22;19.10;99.90
2851;DHT22;1433;49.976;8.342;2023-05-07T07:22:48;19.00;1.00
2851;DHT22;1433;49.976;8.342;2023-05-07T07:25:15;19.00;1.00
2851;DHT22;1433;49.976;8.342;2023-05-07T07:27:42;18.90;1.00
2851;DHT22;1433;49.976;8.342;2023-05-07T07:30:08;18.80;15.60
2851;DHT22;1433;49.976;8.342;2023-05-07T07:32:37;18.80;1.00
2851;DHT22;1433;49.976;8.342;2023-05-07T07:35:04;18.90;99.90
2851;DHT22;1433;49.976;8.342;2023-05-07T07:37:32;19.00;99.90
2851;DHT22;1433;49.976;8.342;2023-05-07T07:39:58;19.10;1.00
2851;DHT22;1433;49.976;8.342;2023-05-07T07:42:26;19.20;99.90
2851;DHT22;1433;49.976;8.342;2023-05-07T07:44:53;19.30;1.00
2851;DHT22;1433;49.976;8.342;2023-05-07T07:47:20;19.30;99.90
2851;DHT22;1433;49.976;8.342;2023-05-07T07:49:47;19.30;1.00
2851;DHT22;1433;49.976;8.342;2023-05-07T07:52:13;19.30;99.90
2851;DHT22;1433;49.976;8.342;2023-05-07T07:54:40;19.20;1.00
2851;DHT22;1433;49.976;8.342;2023-05-07T07:57:06;19.10;1.00
2851;DHT22;1433;49.976;8.342;2023-05-07T07:59:33;19.20;1.00
2851;DHT22;1433;49.976;8.342;2023-05-07T08:01:59;19.30;1.00
2851;DHT22;1433;49.976;8.342;2023-05-07T08:04:27;19.50;99.90
2851;DHT22;1433;49.976;8.342;2023-05-07T08:06:53;19.60;1.00
2851;DHT22;1433;49.976;8.342;2023-05-07T08:09:20;19.70;1.00
2851;DHT22;1433;49.976;8.342;2023-05-07T08:11:52;19.80;99.90
2851;DHT22;1433;49.976;8.342;2023-05-07T08:14:24;19.90;99.90
2851;DHT22;1433;49.976;8.342;2023-05-07T08:16:56;19.80;99.90
2851;DHT22;1433;49.976;8.342;2023-05-07T08:19:32;20.00;99.90
2851;DHT22;1433;49.976;8.342;2023-05-07T08:22:03;20.10;1.00
2851;DHT22;1433;49.976;8.342;2023-05-07T08:24:31;20.20;99.90
2851;DHT22;1433;49.976;8.342;2023-05-07T08:26:58;20.50;1.00
2851;DHT22;1433;49.976;8.342;2023-05-07T08:29:24;20.80;1.00
2851;DHT22;1433;49.976;8.342;2023-05-07T08:31:50;20.90;1.00
2851;DHT22;1433;49.976;8.342;2023-05-07T08:34:17;21.10;1.00
2851;DHT22;1433;49.976;8.342;2023-05-07T08:36:44;21.10;1.00
2851;DHT22;1433;49.976;8.342;2023-05-07T08:39:16;21.20;1.00
2851;DHT22;1433;49.976;8.342;2023-05-07T08:41:48;21.20;1.00
2851;DHT22;1433;49.976;8.342;2023-05-07T08:44:16;21.30;1.00
2851;DHT22;1433;49.976;8.342;2023-05-07T08:46:46;21.60;27.70
2851;DHT22;1433;49.976;8.342;2023-05-07T08:49:15;21.80;1.00
2851;DHT22;1433;49.976;8.342;2023-05-07T08:51:42;21.70;1.00
2851;DHT22;1433;49.976;8.342;2023-05-07T08:54:09;21.90;1.00
2851;DHT22;1433;49.976;8.342;2023-05-07T08:56:37;22.00;25.50
2851;DHT22;1433;49.976;8.342;2023-05-07T08:59:04;22.20;1.00
2851;DHT22;1433;49.976;8.342;2023-05-07T09:01:31;22.60;1.00
2851;DHT22;1433;49.976;8.342;2023-05-07T09:03:58;22.80;1.00
2851;DHT22;1433;49.976;8.342;2023-05-07T09:06:24;22.90;1.00
2851;DHT22;1433;49.976;8.342;2023-05-07T09:08:52;22.80;1.00
2851;DHT22;1433;49.976;8.342;2023-05-07T09:11:23;22.90;99.90
2851;DHT22;1433;49.976;8.342;2023-05-07T09:13:54;23.10;99.90
2851;DHT22;1433;49.976;8.342;2023-05-07T09:16:23;23.10;99.90
2851;DHT22;1433;49.976;8.342;2023-05-07T09:18:54;23.00;99.90
2851;DHT22;1433;49.976;8.342;2023-05-07T09:21:21;23.30;99.90
2851;DHT22;1433;49.976;8.342;2023-05-07T09:23:53;23.40;1.00
2851;DHT22;1433;49.976;8.342;2023-05-07T09:26:24;23.70;99.90
2851;DHT22;1433;49.976;8.342;2023-05-07T09:28:51;23.60;99.90
2851;DHT22;1433;49.976;8.342;2023-05-07T09:31:18;23.70;99.90
2851;DHT22;1433;49.976;8.342;2023-05-07T09:33:45;24.00;1.00
2851;DHT22;1433;49.976;8.342;2023-05-07T09:36:12;24.30;99.90
2851;DHT22;1433;49.976;8.342;2023-05-07T09:38:40;24.50;1.00
2851;DHT22;1433;49.976;8.342;2023-05-07T09:41:08;24.70;1.00
2851;DHT22;1433;49.976;8.342;2023-05-07T09:43:38;24.80;1.00
2851;DHT22;1433;49.976;8.342;2023-05-07T09:46:13;24.70;1.00
2851;DHT22;1433;49.976;8.342;2023-05-07T09:48:43;24.40;1.00
2851;DHT22;1433;49.976;8.342;2023-05-07T09:51:18;24.50;1.00
2851;DHT22;1433;49.976;8.342;2023-05-07T09:53:45;24.50;1.00
2851;DHT22;1433;49.976;8.342;2023-05-07T09:56:14;24.70;1.00
2851;DHT22;1433;49.976;8.342;2023-05-07T09:58:43;25.10;28.80
2851;DHT22;1433;49.976;8.342;2023-05-07T10:01:11;25.10;1.00
2851;DHT22;1433;49.976;8.342;2023-05-07T10:03:40;25.10;1.00
2851;DHT22;1433;49.976;8.342;2023-05-07T10:06:10;25.10;1.00
2851;DHT22;1433;49.976;8.342;2023-05-07T10:08:37;25.20;1.00
2851;DHT22;1433;49.976;8.342;2023-05-07T10:11:04;25.10;1.00
2851;DHT22;1433;49.976;8.342;2023-05-07T10:13:35;25.20;99.90
2851;DHT22;1433;49.976;8.342;2023-05-07T10:16:05;25.10;1.00
2851;DHT22;1433;49.976;8.342;2023-05-07T10:18:33;24.90;99.90
2851;DHT22;1433;49.976;8.342;2023-05-07T10:21:18;24.70;99.90
2851;DHT22;1433;49.976;8.342;2023-05-07T10:23:53;24.60;39.30
2851;DHT22;1433;49.976;8.342;2023-05-07T10:26:18;24.80;99.90
2851;DHT22;1433;49.976;8.342;2023-05-07T10:28:49;25.10;99.90
2851;DHT22;1433;49.976;8.342;2023-05-07T10:34:06;25.60;99.90
2851;DHT22;1433;49.976;8.342;2023-05-07T10:36:31;25.90;99.90
2851;DHT22;1433;49.976;8.342;2023-05-07T10:38:59;26.10;99.90
2851;DHT22;1433;49.976;8.342;2023-05-07T10:41:26;26.10;1.00
2851;DHT22;1433;49.976;8.342;2023-05-07T10:43:52;26.50;1.00
2851;DHT22;1433;49.976;8.342;2023-05-07T10:46:22;27.30;1.00
2851;DHT22;1433;49.976;8.342;2023-05-07T10:51:40;28.40;1.00
2851;DHT22;1433;49.976;8.342;2023-05-07T10:56:45;29.20;1.00
2851;DHT22;1433;49.976;8.342;2023-05-07T10:59:33;29.60;99.90
2851;DHT22;1433;49.976;8.342;2023-05-07T11:02:03;30.00;99.90
2851;DHT22;1433;49.976;8.342;2023-05-07T11:04:36;30.10;1.00
2851;DHT22;1433;49.976;8.342;2023-05-07T11:07:29;30.00;56.00
2851;DHT22;1433;49.976;8.342;2023-05-07T11:09:58;29.70;1.00
2851;DHT22;1433;49.976;8.342;2023-05-07T11:15:10;29.40;99.90
2851;DHT22;1433;49.976;8.342;2023-05-07T11:17:55;29.20;1.00
2851;DHT22;1433;49.976;8.342;2023-05-07T11:26:11;30.60;12.80
2851;DHT22;1433;49.976;8.342;2023-05-07T11:28:40;30.90;1.00
2851;DHT22;1433;49.976;8.342;2023-05-07T11:31:08;31.00;1.00
2851;DHT22;1433;49.976;8.342;2023-05-07T11:33:35;30.50;1.00
2851;DHT22;1433;49.976;8.342;2023-05-07T11:36:04;29.80;1.00
2851;DHT22;1433;49.976;8.342;2023-05-07T11:38:36;29.60;1.00
2851;DHT22;1433;49.976;8.342;2023-05-07T11:41:03;29.80;1.00
2851;DHT22;1433;49.976;8.342;2023-05-07T11:43:31;29.60;1.00
2851;DHT22;1433;49.976;8.342;2023-05-07T11:46:11;29.70;1.00
2851;DHT22;1433;49.976;8.342;2023-05-07T11:48:38;29.90;1.00
2851;DHT22;1433;49.976;8.342;2023-05-07T11:51:06;30.00;1.00
2851;DHT22;1433;49.976;8.342;2023-05-07T11:53:36;30.40;1.00
2851;DHT22;1433;49.976;8.342;2023-05-07T11:56:15;30.80;1.00
2851;DHT22;1433;49.976;8.342;2023-05-07T11:58:39;31.20;1.00
2851;DHT22;1433;49.976;8.342;2023-05-07T12:01:10;31.40;21.70
2851;DHT22;1433;49.976;8.342;2023-05-07T12:03:37;31.60;1.00
2851;DHT22;1433;49.976;8.342;2023-05-07T12:06:07;31.70;5.00
2851;DHT22;1433;49.976;8.342;2023-05-07T12:08:38;31.90;1.00
2851;DHT22;1433;49.976;8.342;2023-05-07T12:11:07;31.90;99.90
2851;DHT22;1433;49.976;8.342;2023-05-07T12:13:34;31.70;40.80
2851;DHT22;1433;49.976;8.342;2023-05-07T12:16:01;31.30;38.70
2851;DHT22;1433;49.976;8.342;2023-05-07T12:18:29;31.20;99.90
2851;DHT22;1433;49.976;8.342;2023-05-07T12:20:56;31.20;53.70
2851;DHT22;1433;49.976;8.342;2023-05-07T12:23:22;31.00;1.00
2851;DHT22;1433;49.976;8.342;2023-05-07T12:25:48;31.00;1.00
2851;DHT22;1433;49.976;8.342;2023-05-07T12:28:17;30.60;99.90
2851;DHT22;1433;49.976;8.342;2023-05-07T12:30:45;30.20;99.90
2851;DHT22;1433;49.976;8.342;2023-05-07T12:33:17;30.00;99.90
2851;DHT22;1433;49.976;8.342;2023-05-07T12:35:44;30.20;99.90
2851;DHT22;1433;49.976;8.342;2023-05-07T12:38:12;30.50;99.90
2851;DHT22;1433;49.976;8.342;2023-05-07T12:40:45;30.40;66.00
2851;DHT22;1433;49.976;8.342;2023-05-07T12:43:24;30.50;99.90
2851;DHT22;1433;49.976;8.342;2023-05-07T12:45:50;30.30;99.90
2851;DHT22;1433;49.976;8.342;2023-05-07T12:48:19;30.20;99.90
2851;DHT22;1433;49.976;8.342;2023-05-07T12:50:50;30.10;1.00
2851;DHT22;1433;49.976;8.342;2023-05-07T12:53:17;29.90;1.00
2851;DHT22;1433;49.976;8.342;2023-05-07T12:55:49;30.00;42.30
2851;DHT22;1433;49.976;8.342;2023-05-07T12:58:20;30.50;1.00
2851;DHT22;1433;49.976;8.342;2023-05-07T13:00:48;30.70;99.90
2851;DHT22;1433;49.976;8.342;2023-05-07T13:03:23;31.30;99.90
2851;DHT22;1433;49.976;8.342;2023-05-07T13:05:51;31.70;99.90
2851;DHT22;1433;49.976;8.342;2023-05-07T13:08:35;31.90;99.90
2851;DHT22;1433;49.976;8.342;2023-05-07T13:11:04;31.50;99.90
2851;DHT22;1433;49.976;8.342;2023-05-07T13:13:31;31.10;1.00
2851;DHT22;1433;49.976;8.342;2023-05-07T13:15:57;30.90;99.90
2851;DHT22;1433;49.976;8.342;2023-05-07T13:18:28;31.00;12.70
2851;DHT22;1433;49.976;8.342;2023-05-07T13:20:55;31.30;1.00
2851;DHT22;1433;49.976;8.342;2023-05-07T13:23:21;31.30;94.50
2851;DHT22;1433;49.976;8.342;2023-05-07T13:25:48;31.50;99.90
2851;DHT22;1433;49.976;8.342;2023-05-07T13:28:16;31.50;99.90
2851;DHT22;1433;49.976;8.342;2023-05-07T13:30:42;31.50;1.00
2851;DHT22;1433;49.976;8.342;2023-05-07T13:33:09;31.70;1.00
2851;DHT22;1433;49.976;8.342;2023-05-07T13:35:35;31.70;1.00
2851;DHT22;1433;49.976;8.342;2023-05-07T13:38:01;31.90;1.00
2851;DHT22;1433;49.976;8.342;2023-05-07T13:40:28;31.70;1.00
2851;DHT22;1433;49.976;8.342;2023-05-07T13:42:56;31.70;1.00
2851;DHT22;1433;49.976;8.342;2023-05-07T13:45:22;31.80;1.00
2851;DHT22;1433;49.976;8.342;2023-05-07T13:47:50;32.00;1.00
2851;DHT22;1433;49.976;8.342;2023-05-07T13:50:16;32.40;1.00
2851;DHT22;1433;49.976;8.342;2023-05-07T13:52:43;32.90;99.90
2851;DHT22;1433;49.976;8.342;2023-05-07T13:55:12;32.70;99.90
2851;DHT22;1433;49.976;8.342;2023-05-07T13:57:38;32.70;99.90
2851;DHT22;1433;49.976;8.342;2023-05-07T14:00:05;32.80;99.90
2851;DHT22;1433;49.976;8.342;2023-05-07T14:02:33;33.00;99.90
2851;DHT22;1433;49.976;8.342;2023-05-07T14:04:59;32.90;99.90
2851;DHT22;1433;49.976;8.342;2023-05-07T14:07:26;33.10;99.90
2851;DHT22;1433;49.976;8.342;2023-05-07T14:09:52;32.80;1.00
2851;DHT22;1433;49.976;8.342;2023-05-07T14:12:18;32.30;1.00
2851;DHT22;1433;49.976;8.342;2023-05-07T14:14:44;32.20;1.00
2851;DHT22;1433;49.976;8.342;2023-05-07T14:17:11;32.30;1.00
2851;DHT22;1433;49.976;8.342;2023-05-07T14:19:37;31.90;1.00
2851;DHT22;1433;49.976;8.342;2023-05-07T14:22:04;31.20;99.90
2851;DHT22;1433;49.976;8.342;2023-05-07T14:24:30;31.00;99.90
2851;DHT22;1433;49.976;8.342;2023-05-07T14:26:56;30.90;1.00
2851;DHT22;1433;49.976;8.342;2023-05-07T14:29:22;30.70;1.00
2851;DHT22;1433;49.976;8.342;2023-05-07T14:31:48;31.00;1.00
2851;DHT22;1433;49.976;8.342;2023-05-07T14:34:16;31.10;1.00
2851;DHT22;1433;49.976;8.342;2023-05-07T14:36:43;31.20;1.00
2851;DHT22;1433;49.976;8.342;2023-05-07T14:39:10;30.70;99.90
2851;DHT22;1433;49.976;8.342;2023-05-07T14:41:36;30.20;99.90
2851;DHT22;1433;49.976;8.342;2023-05-07T14:44:02;29.80;99.90
2851;DHT22;1433;49.976;8.342;2023-05-07T14:46:30;29.60;99.90
2851;DHT22;1433;49.976;8.342;2023-05-07T14:48:56;29.10;26.70
2851;DHT22;1433;49.976;8.342;2023-05-07T14:51:23;29.00;1.00
2851;DHT22;1433;49.976;8.342;2023-05-07T14:53:50;28.90;99.90
2851;DHT22;1433;49.976;8.342;2023-05-07T14:56:16;28.50;1.00
2851;DHT22;1433;49.976;8.342;2023-05-07T14:58:43;28.40;1.00
2851;DHT22;1433;49.976;8.342;2023-05-07T15:01:09;28.00;1.00
2851;DHT22;1433;49.976;8.342;2023-05-07T15:03:35;27.40;38.90
2851;DHT22;1433;49.976;8.342;2023-05-07T15:06:05;27.00;1.00
2851;DHT22;1433;49.976;8.342;2023-05-07T15:08:36;27.00;1.00
2851;DHT22;1433;49.976;8.342;2023-05-07T15:11:02;27.10;1.00
2851;DHT22;1433;49.976;8.342;2023-05-07T15:13:38;26.80;1.00
2851;DHT22;1433;49.976;8.342;2023-05-07T15:16:07;26.40;1.00
2851;DHT22;1433;49.976;8.342;2023-05-07T15:18:33;26.00;1.00
2851;DHT22;1433;49.976;8.342;2023-05-07T15:20:59;25.70;1.00
2851;DHT22;1433;49.976;8.342;2023-05-07T15:23:26;25.70;99.90
2851;DHT22;1433;49.976;8.342;2023-05-07T15:25:52;25.70;99.90
2851;DHT22;1433;49.976;8.342;2023-05-07T15:28:19;25.40;13.60
2851;DHT22;1433;49.976;8.342;2023-05-07T15:30:45;25.10;99.90
2851;DHT22;1433;49.976;8.342;2023-05-07T15:33:11;25.00;99.90
2851;DHT22;1433;49.976;8.342;2023-05-07T15:35:38;24.80;30.80
2851;DHT22;1433;49.976;8.342;2023-05-07T15:38:04;24.60;1.00
2851;DHT22;1433;49.976;8.342;2023-05-07T15:40:31;24.50;1.00
2851;DHT22;1433;49.976;8.342;2023-05-07T15:42:58;24.40;1.00
2851;DHT22;1433;49.976;8.342;2023-05-07T15:45:27;24.40;99.90
2851;DHT22;1433;49.976;8.342;2023-05-07T15:47:53;24.30;1.00
2851;DHT22;1433;49.976;8.342;2023-05-07T15:50:19;24.20;99.90
2851;DHT22;1433;49.976;8.342;2023-05-07T15:52:45;24.20;1.00
2851;DHT22;1433;49.976;8.342;2023-05-07T15:55:12;24.00;1.00
2851;DHT22;1433;49.976;8.342;2023-05-07T15:57:39;23.90;1.00
2851;DHT22;1433;49.976;8.342;2023-05-07T16:00:06;23.90;1.00
2851;DHT22;1433;49.976;8.342;2023-05-07T16:02:36;23.80;99.90
2851;DHT22;1433;49.976;8.342;2023-05-07T16:05:02;23.70;1.00
2851;DHT22;1433;49.976;8.342;2023-05-07T16:07:28;23.60;1.00
2851;DHT22;1433;49.976;8.342;2023-05-07T16:09:55;23.60;1.00
2851;DHT22;1433;49.976;8.342;2023-05-07T16:12:21;23.60;99.90
2851;DHT22;1433;49.976;8.342;2023-05-07T16:14:47;23.60;99.90
2851;DHT22;1433;49.976;8.342;2023-05-07T16:17:14;23.50;99.90
2851;DHT22;1433;49.976;8.342;2023-05-07T16:19:40;23.50;1.00
2851;DHT22;1433;49.976;8.342;2023-05-07T16:22:07;23.40;99.90
2851;DHT22;1433;49.976;8.342;2023-05-07T16:24:33;22.50;1.00
2851;DHT22;1433;49.976;8.342;2023-05-07T16:26:59;21.90;99.90